sensor_id;sensor_type;location;lat;lon;timestamp;pressure;altitude;pressure_sealevel;temperature;humidity
28008;BME280;15333;50.010;20.020;2023-04-07T00:02:13;98710.16;;;0.10;100.00
28008;BME280;15333;50.010;20.020;2023-04-07T00:05:15;98713.78;;;0.07;100.00
28008;BME280;15333;50.010;20.020;2023-04-07T00:08:16;98704.03;;;0.09;100.00
28008;BME280;15333;50.010;20.020;2023-04-07T00:11:17;98702.44;;;0.05;100.00
28008;BME280;15333;50.010;20.020;2023-04-07T00:14:18;98711.16;;;0.07;100.00
28008;BME280;15333;50.010;20.020;2023-04-07T00:17:18;98699.66;;;0.10;100.00
28008;BME280;15333;50.010;20.020;2023-04-07T00:20:20;98698.78;;;0.09;100.00
28008;BME280;15333;50.010;20.020;2023-04-07T00:23:20;98696.97;;;0.11;100.00
28008;BME280;15333;50.010;20.020;2023-04-07T00:26:21;98699.41;;;0.16;100.00
28008;BME280;15333;50.010;20.020;2023-04-07T00:29:23;98697.81;;;0.12;100.00
28008;BME280;15333;50.010;20.020;2023-04-07T00:32:24;98691.91;;;0.05;100.00
28008;BME280;15333;50.010;20.020;2023-04-07T00:35:25;98689.97;;;0.10;100.00
28008;BME280;15333;50.010;20.020;2023-04-07T00:38:26;98691.69;;;0.11;100.00
28008;BME280;15333;50.010;20.020;2023-04-07T00:41:26;98684.72;;;0.10;100.00
28008;BME280;15333;50.010;20.020;2023-04-07T00:44:28;98680.28;;;0.12;100.00
28008;BME280;15333;50.010;20.020;2023-04-07T00:47:28;98680.31;;;0.11;100.00
28008;BME280;15333;50.010;20.020;2023-04-07T00:50:29;98674.25;;;0.09;100.00
28008;BME280;15333;50.010;20.020;2023-04-07T00:53:30;98685.41;;;0.15;100.00
28008;BME280;15333;50.010;20.020;2023-04-07T00:56:31;98683.59;;;0.17;100.00
28008;BME280;15333;50.010;20.020;2023-04-07T00:59:32;98680.97;;;0.17;100.00
28008;BME280;15333;50.010;20.020;2023-04-07T01:02:39;98675.81;;;0.14;100.00
28008;BME280;15333;50.010;20.020;2023-04-07T01:06:00;98670.56;;;0.14;100.00
28008;BME280;15333;50.010;20.020;2023-04-07T01:09:06;98681.88;;;0.16;100.00
28008;BME280;15333;50.010;20.020;2023-04-07T01:15:16;98680.84;;;0.20;100.00
28008;BME280;15333;50.010;20.020;2023-04-07T01:18:27;98679.13;;;0.19;100.00
28008;BME280;15333;50.010;20.020;2023-04-07T01:21:32;98668.72;;;0.16;100.00
28008;BME280;15333;50.010;20.020;2023-04-07T01:30:49;98667.00;;;0.15;100.00
28008;BME280;15333;50.010;20.020;2023-04-07T01:33:54;98649.34;;;0.19;100.00
28008;BME280;15333;50.010;20.020;2023-04-07T01:36:57;98643.44;;;0.12;100.00
28008;BME280;15333;50.010;20.020;2023-04-07T01:39:59;98649.50;;;0.14;100.00
28008;BME280;15333;50.010;20.020;2023-04-07T01:43:00;98645.03;;;0.16;100.00
28008;BME280;15333;50.010;20.020;2023-04-07T01:46:02;98645.84;;;0.18;100.00
28008;BME280;15333;50.010;20.020;2023-04-07T01:49:05;98647.72;;;0.15;100.00
28008;BME280;15333;50.010;20.020;2023-04-07T01:52:07;98656.59;;;0.12;100.00
28008;BME280;15333;50.010;20.020;2023-04-07T01:55:09;98665.06;;;0.20;100.00
28008;BME280;15333;50.010;20.020;2023-04-07T01:58:16;98666.78;;;0.21;100.00
28008;BME280;15333;50.010;20.020;2023-04-07T02:01:17;98670.34;;;0.20;100.00
28008;BME280;15333;50.010;20.020;2023-04-07T02:04:42;98668.38;;;0.25;100.00
28008;BME280;15333;50.010;20.020;2023-04-07T02:07:51;98656.19;;;0.23;100.00
28008;BME280;15333;50.010;20.020;2023-04-07T02:10:54;98656.13;;;0.24;100.00
28008;BME280;15333;50.010;20.020;2023-04-07T02:13:59;98654.66;;;0.17;100.00
28008;BME280;15333;50.010;20.020;2023-04-07T02:17:02;98654.47;;;0.22;100.00
28008;BME280;15333;50.010;20.020;2023-04-07T02:20:06;98647.56;;;0.19;100.00
28008;BME280;15333;50.010;20.020;2023-04-07T02:23:08;98647.56;;;0.19;100.00
28008;BME280;15333;50.010;20.020;2023-04-07T02:26:10;98642.16;;;0.22;100.00
28008;BME280;15333;50.010;20.020;2023-04-07T02:29:11;98645.84;;;0.18;100.00
28008;BME280;15333;50.010;20.020;2023-04-07T02:32:12;98640.56;;;0.18;100.00
28008;BME280;15333;50.010;20.020;2023-04-07T02:35:13;98643.13;;;0.21;100.00
28008;BME280;15333;50.010;20.020;2023-04-07T02:38:14;98635.09;;;0.24;100.00
28008;BME280;15333;50.010;20.020;2023-04-07T02:41:15;98640.34;;;0.24;100.00
28008;BME280;15333;50.010;20.020;2023-04-07T02:44:16;98642.06;;;0.25;100.00
28008;BME280;15333;50.010;20.020;2023-04-07T02:47:17;98638.75;;;0.20;100.00
28008;BME280;15333;50.010;20.020;2023-04-07T02:50:18;98640.47;;;0.21;100.00
28008;BME280;15333;50.010;20.020;2023-04-07T02:53:19;98641.16;;;0.26;100.00
28008;BME280;15333;50.010;20.020;2023-04-07T02:56:20;98639.50;;;0.24;100.00
28008;BME280;15333;50.010;20.020;2023-04-07T02:59:21;98638.75;;;0.20;100.00
28008;BME280;15333;50.010;20.020;2023-04-07T03:02:22;98631.59;;;0.24;100.00
28008;BME280;15333;50.010;20.020;2023-04-07T03:05:24;98626.50;;;0.19;100.00
28008;BME280;15333;50.010;20.020;2023-04-07T03:08:25;98624.78;;;0.18;100.00
28008;BME280;15333;50.010;20.020;2023-04-07T03:11:28;98631.78;;;0.19;100.00
28008;BME280;15333;50.010;20.020;2023-04-07T03:14:31;98622.75;;;0.26;100.00
28008;BME280;15333;50.010;20.020;2023-04-07T03:17:32;98619.34;;;0.23;100.00
28008;BME280;15333;50.010;20.020;2023-04-07T03:20:33;98634.28;;;0.22;100.00
28008;BME280;15333;50.010;20.020;2023-04-07T03:23:40;98619.47;;;0.20;100.00
28008;BME280;15333;50.010;20.020;2023-04-07T03:26:41;98616.78;;;0.21;100.00
28008;BME280;15333;50.010;20.020;2023-04-07T03:29:52;98633.38;;;0.23;100.00
28008;BME280;15333;50.010;20.020;2023-04-07T03:32:53;98643.88;;;0.23;100.00
28008;BME280;15333;50.010;20.020;2023-04-07T03:35:55;98637.53;;;0.29;100.00
28008;BME280;15333;50.010;20.020;2023-04-07T03:38:56;98651.50;;;0.31;100.00
28008;BME280;15333;50.010;20.020;2023-04-07T03:41:57;98653.22;;;0.32;100.00
28008;BME280;15333;50.010;20.020;2023-04-07T03:45:01;98647.25;;;0.28;100.00
28008;BME280;15333;50.010;20.020;2023-04-07T03:48:03;98630.63;;;0.26;100.00
28008;BME280;15333;50.010;20.020;2023-04-07T03:51:05;98640.13;;;0.30;100.00
28008;BME280;15333;50.010;20.020;2023-04-07T03:54:07;98647.34;;;0.25;100.00
28008;BME280;15333;50.010;20.020;2023-04-07T03:57:13;98650.56;;;0.33;100.00
28008;BME280;15333;50.010;20.020;2023-04-07T04:00:18;98651.19;;;0.40;100.00
28008;BME280;15333;50.010;20.020;2023-04-07T04:03:34;98658.13;;;0.43;100.00
28008;BME280;15333;50.010;20.020;2023-04-07T04:06:50;98664.28;;;0.42;100.00
28008;BME280;15333;50.010;20.020;2023-04-07T04:10:11;98662.66;;;0.37;100.00
28008;BME280;15333;50.010;20.020;2023-04-07T04:13:16;98664.38;;;0.38;100.00
28008;BME280;15333;50.010;20.020;2023-04-07T04:16:17;98659.06;;;0.40;100.00
28008;BME280;15333;50.010;20.020;2023-04-07T04:19:19;98639.78;;;0.39;100.00
28008;BME280;15333;50.010;20.020;2023-04-07T04:22:20;98635.75;;;0.29;100.00
28008;BME280;15333;50.010;20.020;2023-04-07T04:25:26;98604.28;;;0.28;100.00
28008;BME280;15333;50.010;20.020;2023-04-07T04:28:30;98599.88;;;0.28;100.00
28008;BME280;15333;50.010;20.020;2023-04-07T04:31:32;98629.72;;;0.27;100.00
28008;BME280;15333;50.010;20.020;2023-04-07T04:34:34;98646.47;;;0.25;100.00
28008;BME280;15333;50.010;20.020;2023-04-07T04:37:35;98637.72;;;0.24;100.00
28008;BME280;15333;50.010;20.020;2023-04-07T04:40:41;98643.56;;;0.32;100.00
28008;BME280;15333;50.010;20.020;2023-04-07T04:43:42;98653.22;;;0.32;100.00
28008;BME280;15333;50.010;20.020;2023-04-07T04:46:45;98662.81;;;0.34;100.00
28008;BME280;15333;50.010;20.020;2023-04-07T04:49:47;98660.94;;;0.36;100.00
28008;BME280;15333;50.010;20.020;2023-04-07T04:52:48;98652.72;;;0.46;100.00
28008;BME280;15333;50.010;20.020;2023-04-07T04:55:57;98644.94;;;0.43;100.00
28008;BME280;15333;50.010;20.020;2023-04-07T04:59:09;98652.03;;;0.41;100.00
28008;BME280;15333;50.010;20.020;2023-04-07T05:02:20;98685.00;;;0.51;100.00
28008;BME280;15333;50.010;20.020;2023-04-07T05:05:22;98682.94;;;0.59;100.00
28008;BME280;15333;50.010;20.020;2023-04-07T05:08:25;98683.75;;;0.61;100.00
28008;BME280;15333;50.010;20.020;2023-04-07T05:11:27;98684.56;;;0.63;100.00
28008;BME280;15333;50.010;20.020;2023-04-07T05:14:30;98669.03;;;0.55;100.00
28008;BME280;15333;50.010;20.020;2023-04-07T05:17:38;98662.34;;;0.47;100.00
28008;BME280;15333;50.010;20.020;2023-04-07T05:20:40;98658.66;;;0.51;100.00
28008;BME280;15333;50.010;20.020;2023-04-07T05:23:43;98650.94;;;0.46;100.00
28008;BME280;15333;50.010;20.020;2023-04-07T05:26:45;98662.25;;;0.50;100.00
28008;BME280;15333;50.010;20.020;2023-04-07T05:29:46;98662.91;;;0.55;100.00
28008;BME280;15333;50.010;20.020;2023-04-07T05:32:56;98660.16;;;0.58;100.00
28008;BME280;15333;50.010;20.020;2023-04-07T05:36:26;98663.94;;;0.51;100.00
28008;BME280;15333;50.010;20.020;2023-04-07T05:39:30;98661.75;;;0.62;100.00
28008;BME280;15333;50.010;20.020;2023-04-07T05:42:32;98665.31;;;0.61;100.00
28008;BME280;15333;50.010;20.020;2023-04-07T05:45:33;98674.97;;;0.60;100.00
28008;BME280;15333;50.010;20.020;2023-04-07T05:48:34;98666.16;;;0.61;100.00
28008;BME280;15333;50.010;20.020;2023-04-07T05:51:35;98668.75;;;0.63;100.00
28008;BME280;15333;50.010;20.020;2023-04-07T05:54:43;98664.97;;;0.70;100.00
28008;BME280;15333;50.010;20.020;2023-04-07T05:57:47;98656.25;;;0.68;100.00
28008;BME280;15333;50.010;20.020;2023-04-07T06:00:50;98647.31;;;0.72;100.00
28008;BME280;15333;50.010;20.020;2023-04-07T06:03:52;98645.50;;;0.74;100.00
28008;BME280;15333;50.010;20.020;2023-04-07T06:06:55;98646.53;;;0.70;100.00
28008;BME280;15333;50.010;20.020;2023-04-07T06:09:56;98645.31;;;0.78;100.00
28008;BME280;15333;50.010;20.020;2023-04-07T06:12:59;98645.63;;;0.71;100.00
28008;BME280;15333;50.010;20.020;2023-04-07T06:16:01;98647.44;;;0.69;100.00
28008;BME280;15333;50.010;20.020;2023-04-07T06:19:01;98654.25;;;0.74;100.00
28008;BME280;15333;50.010;20.020;2023-04-07T06:22:03;98650.41;;;0.83;100.00
28008;BME280;15333;50.010;20.020;2023-04-07T06:25:05;98648.19;;;0.94;100.00
28008;BME280;15333;50.010;20.020;2023-04-07T06:28:06;98657.16;;;0.90;100.00
28008;BME280;15333;50.010;20.020;2023-04-07T06:31:07;98666.09;;;0.86;100.00
28008;BME280;15333;50.010;20.020;2023-04-07T06:34:10;98662.44;;;0.90;100.00
28008;BME280;15333;50.010;20.020;2023-04-07T06:37:12;98642.31;;;0.88;100.00
28008;BME280;15333;50.010;20.020;2023-04-07T06:40:13;98645.75;;;0.90;100.00
28008;BME280;15333;50.010;20.020;2023-04-07T06:43:13;98651.03;;;0.90;100.00
28008;BME280;15333;50.010;20.020;2023-04-07T06:46:24;98654.53;;;0.90;100.00
28008;BME280;15333;50.010;20.020;2023-04-07T06:49:26;98661.84;;;1.05;100.00
28008;BME280;15333;50.010;20.020;2023-04-07T06:52:27;98654.94;;;1.01;100.00
28008;BME280;15333;50.010;20.020;2023-04-07T06:55:28;98655.00;;;1.00;100.00
28008;BME280;15333;50.010;20.020;2023-04-07T06:58:29;98649.44;;;1.07;100.00
28008;BME280;15333;50.010;20.020;2023-04-07T07:01:30;98653.13;;;1.03;100.00
28008;BME280;15333;50.010;20.020;2023-04-07T07:04:31;98661.59;;;1.11;100.00
28008;BME280;15333;50.010;20.020;2023-04-07T07:07:31;98661.69;;;1.08;100.00
28008;BME280;15333;50.010;20.020;2023-04-07T07:10:32;98660.22;;;1.01;100.00
28008;BME280;15333;50.010;20.020;2023-04-07T07:13:33;98662.25;;;1.16;100.00
28008;BME280;15333;50.010;20.020;2023-04-07T07:16:34;98666.84;;;1.11;100.00
28008;BME280;15333;50.010;20.020;2023-04-07T07:19:36;98674.81;;;1.10;100.00
28008;BME280;15333;50.010;20.020;2023-04-07T07:22:37;98658.66;;;1.19;100.00
28008;BME280;15333;50.010;20.020;2023-04-07T07:25:38;98655.09;;;1.20;100.00
28008;BME280;15333;50.010;20.020;2023-04-07T07:28:39;98654.34;;;1.16;100.00
28008;BME280;15333;50.010;20.020;2023-04-07T07:31:40;98650.50;;;1.25;100.00
28008;BME280;15333;50.010;20.020;2023-04-07T07:34:41;98659.25;;;1.26;100.00
28008;BME280;15333;50.010;20.020;2023-04-07T07:37:41;98661.84;;;1.27;100.00
28008;BME280;15333;50.010;20.020;2023-04-07T07:40:44;98663.41;;;1.31;100.00
28008;BME280;15333;50.010;20.020;2023-04-07T07:43:46;98659.19;;;1.27;100.00
28008;BME280;15333;50.010;20.020;2023-04-07T07:46:48;98664.78;;;1.20;100.00
28008;BME280;15333;50.010;20.020;2023-04-07T07:49:49;98664.88;;;1.16;100.00
28008;BME280;15333;50.010;20.020;2023-04-07T07:52:50;98662.16;;;1.20;100.00
28008;BME280;15333;50.010;20.020;2023-04-07T07:55:51;98662.75;;;1.26;100.00
28008;BME280;15333;50.010;20.020;2023-04-07T07:58:52;98658.91;;;1.35;100.00
28008;BME280;15333;50.010;20.020;2023-04-07T08:01:53;98645.16;;;1.48;100.00
28008;BME280;15333;50.010;20.020;2023-04-07T08:04:54;98651.78;;;1.57;100.00
28008;BME280;15333;50.010;20.020;2023-04-07T08:07:54;98647.56;;;1.53;100.00
28008;BME280;15333;50.010;20.020;2023-04-07T08:10:55;98656.56;;;1.49;100.00
28008;BME280;15333;50.010;20.020;2023-04-07T08:13:56;98659.25;;;1.47;100.00
28008;BME280;15333;50.010;20.020;2023-04-07T08:16:57;98666.09;;;1.51;100.00
28008;BME280;15333;50.010;20.020;2023-04-07T08:19:59;98670.41;;;1.54;100.00
28008;BME280;15333;50.010;20.020;2023-04-07T08:23:01;98682.78;;;1.52;100.00
28008;BME280;15333;50.010;20.020;2023-04-07T08:26:01;98675.94;;;1.68;100.00
28008;BME280;15333;50.010;20.020;2023-04-07T08:29:02;98680.00;;;1.77;100.00
28008;BME280;15333;50.010;20.020;2023-04-07T08:32:03;98693.97;;;1.57;100.00
28008;BME280;15333;50.010;20.020;2023-04-07T08:35:05;98693.81;;;1.62;100.00
28008;BME280;15333;50.010;20.020;2023-04-07T08:38:06;98691.94;;;1.64;100.00
28008;BME280;15333;50.010;20.020;2023-04-07T08:41:12;98693.91;;;1.80;100.00
28008;BME280;15333;50.010;20.020;2023-04-07T08:44:19;98690.00;;;1.69;100.00
28008;BME280;15333;50.010;20.020;2023-04-07T08:47:22;98691.16;;;1.83;100.00
28008;BME280;15333;50.010;20.020;2023-04-07T08:50:26;98687.75;;;1.80;100.00
28008;BME280;15333;50.010;20.020;2023-04-07T08:53:34;98687.06;;;1.96;100.00
28008;BME280;15333;50.010;20.020;2023-04-07T08:56:40;98686.25;;;1.94;100.00
28008;BME280;15333;50.010;20.020;2023-04-07T08:59:41;98681.25;;;1.88;100.00
28008;BME280;15333;50.010;20.020;2023-04-07T09:02:44;98683.50;;;1.77;100.00
28008;BME280;15333;50.010;20.020;2023-04-07T09:05:49;98680.84;;;1.77;100.00
28008;BME280;15333;50.010;20.020;2023-04-07T09:08:50;98678.56;;;1.90;100.00
28008;BME280;15333;50.010;20.020;2023-04-07T09:11:51;98666.91;;;1.74;100.00
28008;BME280;15333;50.010;20.020;2023-04-07T09:14:53;98660.94;;;1.70;100.00
28008;BME280;15333;50.010;20.020;2023-04-07T09:17:55;98652.06;;;1.71;100.00
28008;BME280;15333;50.010;20.020;2023-04-07T09:21:01;98648.25;;;1.78;100.00
28008;BME280;15333;50.010;20.020;2023-04-07T09:27:22;98640.47;;;1.95;100.00
28008;BME280;15333;50.010;20.020;2023-04-07T09:30:24;98646.66;;;2.15;100.00
28008;BME280;15333;50.010;20.020;2023-04-07T09:33:29;98638.50;;;2.01;100.00
28008;BME280;15333;50.010;20.020;2023-04-07T09:36:40;98641.66;;;2.09;100.00
28008;BME280;15333;50.010;20.020;2023-04-07T09:39:51;98641.81;;;2.06;100.00
28008;BME280;15333;50.010;20.020;2023-04-07T09:42:53;98640.41;;;2.17;100.00
28008;BME280;15333;50.010;20.020;2023-04-07T09:46:09;98648.09;;;2.22;100.00
28008;BME280;15333;50.010;20.020;2023-04-07T09:49:10;98643.38;;;2.10;100.00
28008;BME280;15333;50.010;20.020;2023-04-07T09:52:11;98649.53;;;2.29;100.00
28008;BME280;15333;50.010;20.020;2023-04-07T09:55:12;98650.22;;;2.14;100.00
28008;BME280;15333;50.010;20.020;2023-04-07T09:58:14;98644.03;;;2.15;100.00
28008;BME280;15333;50.010;20.020;2023-04-07T10:01:16;98646.00;;;2.10;100.00
28008;BME280;15333;50.010;20.020;2023-04-07T10:04:17;98653.94;;;2.10;100.00
28008;BME280;15333;50.010;20.020;2023-04-07T10:07:19;98653.66;;;2.16;100.00
28008;BME280;15333;50.010;20.020;2023-04-07T10:10:20;98645.22;;;2.08;100.00
28008;BME280;15333;50.010;20.020;2023-04-07T10:13:21;98646.38;;;2.21;100.00
28008;BME280;15333;50.010;20.020;2023-04-07T10:16:22;98651.66;;;2.41;100.00
28008;BME280;15333;50.010;20.020;2023-04-07T10:19:24;98647.16;;;2.43;100.00
28008;BME280;15333;50.010;20.020;2023-04-07T10:22:27;98650.31;;;2.51;100.00
28008;BME280;15333;50.010;20.020;2023-04-07T10:25:29;98657.19;;;2.55;100.00
28008;BME280;15333;50.010;20.020;2023-04-07T10:28:30;98655.00;;;2.63;100.00
28008;BME280;15333;50.010;20.020;2023-04-07T10:31:35;98656.84;;;2.43;100.00
28008;BME280;15333;50.010;20.020;2023-04-07T10:38:12;98643.88;;;2.38;100.00
28008;BME280;15333;50.010;20.020;2023-04-07T10:54:21;98635.41;;;2.88;100.00
28008;BME280;15333;50.010;20.020;2023-04-07T10:57:22;98637.91;;;2.91;100.00
28008;BME280;15333;50.010;20.020;2023-04-07T11:00:23;98642.59;;;3.03;100.00
28008;BME280;15333;50.010;20.020;2023-04-07T11:03:25;98641.59;;;2.87;100.00
28008;BME280;15333;50.010;20.020;2023-04-07T11:06:26;98658.16;;;2.71;100.00
28008;BME280;15333;50.010;20.020;2023-04-07T11:09:27;98658.44;;;2.65;100.00
28008;BME280;15333;50.010;20.020;2023-04-07T11:12:28;98655.16;;;2.79;100.00
28008;BME280;15333;50.010;20.020;2023-04-07T11:15:31;98658.97;;;2.73;100.00
28008;BME280;15333;50.010;20.020;2023-04-07T11:18:34;98657.75;;;2.81;100.00
28008;BME280;15333;50.010;20.020;2023-04-07T11:21:36;98656.19;;;2.77;100.00
28008;BME280;15333;50.010;20.020;2023-04-07T11:24:37;98652.03;;;2.71;100.00
28008;BME280;15333;50.010;20.020;2023-04-07T11:27:38;98650.81;;;2.59;100.00
28008;BME280;15333;50.010;20.020;2023-04-07T11:30:45;98661.88;;;2.67;100.00
28008;BME280;15333;50.010;20.020;2023-04-07T11:33:51;98661.31;;;2.80;100.00
28008;BME280;15333;50.010;20.020;2023-04-07T11:36:54;98655.44;;;2.92;100.00
28008;BME280;15333;50.010;20.020;2023-04-07T11:39:59;98649.03;;;2.79;100.00
28008;BME280;15333;50.010;20.020;2023-04-07T11:43:00;98648.91;;;2.82;100.00
28008;BME280;15333;50.010;20.020;2023-04-07T11:46:14;98653.59;;;2.56;100.00
28008;BME280;15333;50.010;20.020;2023-04-07T11:49:16;98662.03;;;2.64;100.00
28008;BME280;15333;50.010;20.020;2023-04-07T11:52:17;98655.91;;;2.83;100.00
28008;BME280;15333;50.010;20.020;2023-04-07T11:55:21;98655.91;;;2.83;100.00
28008;BME280;15333;50.010;20.020;2023-04-07T11:58:24;98652.34;;;2.84;100.00
28008;BME280;15333;50.010;20.020;2023-04-07T12:01:38;98653.03;;;2.87;100.00
28008;BME280;15333;50.010;20.020;2023-04-07T12:04:54;98655.19;;;2.98;100.00
28008;BME280;15333;50.010;20.020;2023-04-07T12:07:56;98659.69;;;2.96;100.00
28008;BME280;15333;50.010;20.020;2023-04-07T12:11:04;98653.25;;;2.83;100.00
28008;BME280;15333;50.010;20.020;2023-04-07T12:14:05;98656.31;;;2.73;100.00
28008;BME280;15333;50.010;20.020;2023-04-07T12:17:19;98663.81;;;2.64;100.00
28008;BME280;15333;50.010;20.020;2023-04-07T12:20:20;98658.44;;;2.65;100.00
28008;BME280;15333;50.010;20.020;2023-04-07T12:23:21;98663.44;;;2.71;100.00
28008;BME280;15333;50.010;20.020;2023-04-07T12:26:22;98666.25;;;2.68;100.00
28008;BME280;15333;50.010;20.020;2023-04-07T12:29:25;98660.47;;;2.60;100.00
28008;BME280;15333;50.010;20.020;2023-04-07T12:32:26;98659.72;;;2.57;100.00
28008;BME280;15333;50.010;20.020;2023-04-07T12:35:29;98662.31;;;2.58;100.00
28008;BME280;15333;50.010;20.020;2023-04-07T12:38:30;98672.53;;;2.66;100.00
28008;BME280;15333;50.010;20.020;2023-04-07T12:41:31;98669.66;;;2.70;100.00
28008;BME280;15333;50.010;20.020;2023-04-07T12:44:31;98661.88;;;2.67;100.00
28008;BME280;15333;50.010;20.020;2023-04-07T12:47:32;98673.91;;;2.74;100.00
28008;BME280;15333;50.010;20.020;2023-04-07T12:50:34;98661.88;;;2.67;100.00
28008;BME280;15333;50.010;20.020;2023-04-07T12:53:36;98665.47;;;2.66;100.00
28008;BME280;15333;50.010;20.020;2023-04-07T12:56:36;98675.09;;;2.67;100.00
28008;BME280;15333;50.010;20.020;2023-04-07T12:59:37;98667.81;;;2.72;100.00
28008;BME280;15333;50.010;20.020;2023-04-07T13:02:38;98663.03;;;2.81;100.00
28008;BME280;15333;50.010;20.020;2023-04-07T13:05:41;98667.19;;;2.67;100.00
28008;BME280;15333;50.010;20.020;2023-04-07T13:08:42;98656.72;;;2.64;100.00
28008;BME280;15333;50.010;20.020;2023-04-07T13:11:43;98663.91;;;2.62;100.00
28008;BME280;15333;50.010;20.020;2023-04-07T13:14:45;98667.19;;;2.67;100.00
28008;BME280;15333;50.010;20.020;2023-04-07T13:17:46;98667.25;;;2.85;100.00
28008;BME280;15333;50.010;20.020;2023-04-07T13:20:47;98671.88;;;2.80;100.00
28008;BME280;15333;50.010;20.020;2023-04-07T13:23:48;98667.91;;;2.90;100.00
28008;BME280;15333;50.010;20.020;2023-04-07T13:26:51;98668.41;;;2.98;100.00
28008;BME280;15333;50.010;20.020;2023-04-07T13:29:52;98671.19;;;2.95;100.00
28008;BME280;15333;50.010;20.020;2023-04-07T13:32:53;98675.84;;;2.90;100.00
28008;BME280;15333;50.010;20.020;2023-04-07T13:35:54;98678.47;;;2.90;100.00
28008;BME280;15333;50.010;20.020;2023-04-07T13:38:55;98674.75;;;2.94;100.00
28008;BME280;15333;50.010;20.020;2023-04-07T13:41:57;98671.06;;;2.98;100.00
28008;BME280;15333;50.010;20.020;2023-04-07T13:44:57;98679.63;;;2.84;100.00
28008;BME280;15333;50.010;20.020;2023-04-07T13:47:58;98678.03;;;2.80;100.00
28008;BME280;15333;50.010;20.020;2023-04-07T13:50:59;98685.59;;;2.88;100.00
28008;BME280;15333;50.010;20.020;2023-04-07T13:54:00;98682.34;;;2.83;100.00
28008;BME280;15333;50.010;20.020;2023-04-07T13:57:01;98688.75;;;2.96;100.00
28008;BME280;15333;50.010;20.020;2023-04-07T14:00:03;98681.03;;;3.10;100.00
28008;BME280;15333;50.010;20.020;2023-04-07T14:03:09;98683.19;;;3.02;100.00
28008;BME280;15333;50.010;20.020;2023-04-07T14:06:10;98684.09;;;3.01;100.00
28008;BME280;15333;50.010;20.020;2023-04-07T14:09:11;98696.59;;;2.79;100.00
28008;BME280;15333;50.010;20.020;2023-04-07T14:12:12;98698.03;;;2.86;100.00
28008;BME280;15333;50.010;20.020;2023-04-07T14:15:12;98699.25;;;2.79;100.00
28008;BME280;15333;50.010;20.020;2023-04-07T14:18:14;98700.94;;;2.80;100.00
28008;BME280;15333;50.010;20.020;2023-04-07T14:21:15;98699.69;;;2.88;100.00
28008;BME280;15333;50.010;20.020;2023-04-07T14:24:16;98703.38;;;2.65;100.00
28008;BME280;15333;50.010;20.020;2023-04-07T14:27:17;98693.59;;;2.67;100.00
28008;BME280;15333;50.010;20.020;2023-04-07T14:30:20;98704.44;;;2.61;100.00
28008;BME280;15333;50.010;20.020;2023-04-07T14:33:21;98700.59;;;2.68;100.00
28008;BME280;15333;50.010;20.020;2023-04-07T14:36:22;98704.72;;;2.55;100.00
28008;BME280;15333;50.010;20.020;2023-04-07T14:39:23;98696.00;;;2.53;100.00
28008;BME280;15333;50.010;20.020;2023-04-07T14:42:24;98698.91;;;2.47;100.00
28008;BME280;15333;50.010;20.020;2023-04-07T14:45:26;98698.00;;;2.48;100.00
28008;BME280;15333;50.010;20.020;2023-04-07T14:48:27;98708.41;;;2.51;100.00
28008;BME280;15333;50.010;20.020;2023-04-07T14:51:28;98706.69;;;2.50;100.00
28008;BME280;15333;50.010;20.020;2023-04-07T14:54:29;98709.16;;;2.55;100.00
28008;BME280;15333;50.010;20.020;2023-04-07T14:57:30;98704.38;;;2.63;100.00
28008;BME280;15333;50.010;20.020;2023-04-07T15:00:31;98708.28;;;2.54;100.00
28008;BME280;15333;50.010;20.020;2023-04-07T15:03:32;98698.69;;;2.52;100.00
28008;BME280;15333;50.010;20.020;2023-04-07T15:06:39;98703.13;;;2.51;100.00
28008;BME280;15333;50.010;20.020;2023-04-07T15:09:40;98693.22;;;2.56;100.00
28008;BME280;15333;50.010;20.020;2023-04-07T15:12:41;98690.22;;;2.64;100.00
28008;BME280;15333;50.010;20.020;2023-04-07T15:15:42;98697.72;;;2.54;100.00
28008;BME280;15333;50.010;20.020;2023-04-07T15:18:44;98700.22;;;2.57;100.00
28008;BME280;15333;50.010;20.020;2023-04-07T15:21:46;98695.81;;;2.77;100.00
28008;BME280;15333;50.010;20.020;2023-04-07T15:24:47;98693.59;;;2.67;100.00
28008;BME280;15333;50.010;20.020;2023-04-07T15:27:48;98699.69;;;2.69;100.00
28008;BME280;15333;50.010;20.020;2023-04-07T15:30:49;98693.31;;;2.73;100.00
28008;BME280;15333;50.010;20.020;2023-04-07T15:33:50;98701.19;;;2.75;100.00
28008;BME280;15333;50.010;20.020;2023-04-07T15:36:51;98703.88;;;2.73;100.00
28008;BME280;15333;50.010;20.020;2023-04-07T15:39:52;98700.72;;;2.65;100.00
28008;BME280;15333;50.010;20.020;2023-04-07T15:42:53;98703.25;;;2.68;100.00
28008;BME280;15333;50.010;20.020;2023-04-07T15:45:54;98702.44;;;2.66;100.00
28008;BME280;15333;50.010;20.020;2023-04-07T15:48:55;98705.81;;;2.70;100.00
28008;BME280;15333;50.010;20.020;2023-04-07T15:51:56;98704.56;;;2.58;100.00
28008;BME280;15333;50.010;20.020;2023-04-07T15:54:57;98707.84;;;2.63;100.00
28008;BME280;15333;50.010;20.020;2023-04-07T15:57:59;98715.44;;;2.71;100.00
28008;BME280;15333;50.010;20.020;2023-04-07T16:01:00;98717.44;;;2.66;100.00
28008;BME280;15333;50.010;20.020;2023-04-07T16:04:01;98727.88;;;2.69;100.00
28008;BME280;15333;50.010;20.020;2023-04-07T16:07:02;98723.84;;;2.60;100.00
28008;BME280;15333;50.010;20.020;2023-04-07T16:10:03;98715.13;;;2.58;100.00
28008;BME280;15333;50.010;20.020;2023-04-07T16:13:08;98718.41;;;2.63;100.00
28008;BME280;15333;50.010;20.020;2023-04-07T16:16:09;98725.03;;;2.73;100.00
28008;BME280;15333;50.010;20.020;2023-04-07T16:19:10;98723.69;;;2.63;100.00
28008;BME280;15333;50.010;20.020;2023-04-07T16:22:11;98730.59;;;2.67;100.00
28008;BME280;15333;50.010;20.020;2023-04-07T16:25:14;98731.38;;;2.69;100.00